Aérodrome :
LOGIN :

S'inscrire | Disclaimer

   EN    FR    IT 

 










Légende :    VFR   VFR Marginal   IFR   IFR Intensif   IFR Très Intensif
Visi : 
Plafond : 
>= 8 km
>= 3000ft
5 à 8 km
1000 à 3000 ft
1500m à 5 km
500 à 1000 ft
800 à 1500m
200 à 500 ft
< 800m
< 200 ft
Symboles :   Orages  Brouillard  Fortes neiges  Fortes précipitations  Vent > 20 kt
SIGMETs :   Divers  Orages  Givrage  Turbulence  Onde Orograph.  Cendres Volcan.







- Altitude de l'aérodrome : 24 ft
- Code IATA : FAO


LPFR - Faro

DERNIER METAR :
  • 210230Z 03007KT CAVOK 21/17 Q1015

METARs EXPIRÉS :
  • 210200Z 03006KT CAVOK 21/18 Q1015
  • 210130Z 02004KT CAVOK 20/18 Q1016
  • 210100Z 02002KT CAVOK 20/18 Q1016
  • 210030Z 36004KT 330V030 CAVOK 20/18 Q1016
  • 210000Z 30003KT CAVOK 20/18 Q1016

TAF TAF LPFR
Valide du 21 à 00h jusqu'au 22 à 00h UTC


202300Z 2100/2124 30005KT 9999 FEW040
PROB30
TEMPO 2100/2118 5000 TSRA SCT020 FEW035CB
BECMG 2102/2104 05008KT
BECMG 2106/2109 20010KT
BECMG 2116/2118 26012KT
BECMG 2122/2124 VRB03KT
Pas de NOTAMs connus pour ce terrain.
1 SIGMET publié pour la FIR Lisboa (LPPC) :
 
Orages noyés dans la masse
LPPC SIGMET 1 VALID 210030/210330 LPPT
LPPC LISBON FIR EMBD TS FCST S OF N4040 AND E OF W00930 TOP FL380 STNR NC=



MET'MAP, la Météo Aéronautique d'un coup d'oeil ! - Copyright ORBIFLY Décembre 2007 - Disclaimer

ORBIFLY MET'MAP TEAM :

Programmation & Développement : Alexandra Zaïnal
Conception & Développement : Baudouin d'Aumeries
Co-Programmation & Développement : Marc-Olivier Méhu
Soutien technique & logistique : Manuel Goepfert

Contact : metmap@orbifly.com




SOURCES & CREDITS :

   NOAA